Thursday, September 20, 2018, 4:35 PM EDT
Back to Local

KCDW, Caldwell Essex County Airport

Location: Fairfield, NJ, United States Lat: 40.883
Local Time: 4:35 PM EDT (20:35 GMT) Lon: -74.283
Time Zone: US/Eastern Elev: 173 ft

Show me the last for .
Show Coded

Time T Td Feel RH Dir Speed Gust Alt SLP Vis Weather Sky Remarks
2018-09-20 15:53 71 58 76 63 170° 6 - 30.21 30.22 10 OVC032 None
2018-09-20 14:53 69 59 - 70 130° 3 - 30.23 30.24 10 OVC028 None
2018-09-20 13:53 69 60 - 73 Variable 3 - 30.24 30.25 10 OVC026 6-hr Min Temp (2pm): 64.0°F
6-hr Max Temp (2pm): 69.1°F
2018-09-20 12:53 68 59 - 72 - Calm - 30.25 30.26 10 BKN025 OVC034 None
2018-09-20 11:53 66 59 - 78 60° 3 - 30.26 30.27 10 OVC021 None
2018-09-20 10:53 65 59 - 81 100° 7 - 30.25 30.26 10 OVC021 None
2018-09-20 09:53 65 59 - 81 60° 6 - 30.24 30.25 10 OVC020 None
2018-09-20 08:53 64 59 - 83 90° 6 - 30.21 30.22 10 OVC022 None
2018-09-20 07:53 64 59 - 83 90° 7 - 30.20 30.21 10 OVC019 6-hr Min Temp (8am): 61.0°F
6-hr Max Temp (8am): 64.9°F
2018-09-20 06:53 64 60 - 86 150° 6 - 30.17 30.18 10 OVC018 None
2018-09-20 05:53 64 60 - 86 130° 6 - 30.14 30.15 10 OVC018 None
2018-09-20 04:53 62 60 - 93 120° 6 - 30.12 30.13 10 OVC020 None
2018-09-20 03:53 63 62 - 96 100° 5 - 30.11 30.12 10 OVC017 None
2018-09-20 02:53 64 63 - 96 110° 8 - 30.09 30.10 10 OVC018 None
2018-09-20 01:53 65 64 - 96 110° 6 - 30.09 30.10 10 BKN018 BKN025 OVC060 6-hr Min Temp (2am): 64.9°F
6-hr Max Temp (2am): 70.0°F
2018-09-20 01:18 66 66 - 100 90° 8 - 30.09 - 10 BKN015 BKN042 OVC055 None
2018-09-20 00:53 67 67 - 100 70° 5 - 30.07 30.09 10 FEW013 SCT042 OVC050 24-hr Min Temp (1am): 62.1°F
24-hr Max Temp (1am): 80.1°F
2018-09-20 00:13 67 67 - 100 80° 7 - 30.07 - 10 SCT014 SCT032 BKN042 None
2018-09-19 23:53 68 67 - 96 60° 7 - 30.07 30.08 10 BKN014 BKN022 OVC055 None
2018-09-19 23:36 68 68 - 100 60° 6 - 30.07 - 10 BKN015 OVC023 None
2018-09-19 22:53 69 69 - 100 140° 3 - 30.06 30.07 10 BKN013 OVC017 None
2018-09-19 22:46 69 69 - 100 - Calm - 30.05 - 10 BKN013 BKN019 OVC036 None
2018-09-19 22:15 69 69 - 100 - Calm - 30.05 - 10 SCT018 BKN023 OVC032 None
2018-09-19 21:53 69 69 - 100 - Calm - 30.04 30.06 10 SCT018 BKN030 OVC046 None
2018-09-19 21:51 70 70 - 100 - Calm - 30.04 - 10 FEW012 BKN024 OVC046 None
2018-09-19 21:44 69 69 - 100 - Calm - 30.04 - 10 FEW012 BKN031 OVC046 None
2018-09-19 21:22 70 70 - 100 - Calm - 30.03 - 10 FEW011 BKN026 OVC070 None
2018-09-19 20:53 70 69 - 96 160° 7 - 30.01 30.02 10 FEW026 BKN046 OVC060 None
2018-09-19 19:53 68 66 - 93 - Calm - 29.98 29.99 10 FEW040 OVC055 6-hr Min Temp (8pm): 68.0°F
6-hr Max Temp (8pm): 80.1°F
2018-09-19 18:53 69 65 - 86 90° 3 - 29.96 29.97 10 BKN050 None
2018-09-19 17:53 70 64 - 81 40° 3 - 29.95 29.96 10 FEW049 None
2018-09-19 16:53 72 64 76 76 Variable 6 - 29.93 29.95 10 BKN120 None

Support USWX by starting your Amazon purchase here.